createdAt,value
2022-09-05T00:02:03.142Z,101043.16
2022-09-05T00:05:20.386Z,101032.34
2022-09-05T00:08:32.143Z,101030.50
2022-09-05T00:11:57.707Z,101024.28
2022-09-05T00:15:18.727Z,101028.78
2022-09-05T00:24:18.417Z,101031.56
2022-09-05T00:24:32.506Z,101029.59
2022-09-05T00:26:18.405Z,101027.09
2022-09-05T00:30:47.314Z,101024.38
2022-09-05T00:33:17.984Z,101024.28
2022-09-05T00:36:58.713Z,101035.88
2022-09-05T00:40:18.630Z,101037.53
2022-09-05T00:43:24.649Z,101034.09
2022-09-05T00:46:33.891Z,101034.16
2022-09-05T00:49:42.525Z,101036.75
2022-09-05T00:53:07.441Z,101036.81
2022-09-05T00:56:39.892Z,101028.78
2022-09-05T01:00:03.937Z,101027.81
2022-09-05T01:03:24.609Z,101034.94
2022-09-05T01:06:37.512Z,101044.00
2022-09-05T01:09:45.950Z,101035.00
2022-09-05T01:13:05.358Z,101050.41
2022-09-05T01:17:08.804Z,101040.56
2022-09-05T01:20:53.011Z,101046.84
2022-09-05T01:24:33.029Z,101043.31
2022-09-05T01:28:44.616Z,101040.66
2022-09-05T01:31:45.305Z,101037.00
2022-09-05T01:35:17.815Z,101041.50
2022-09-05T01:38:38.596Z,101028.88
2022-09-05T01:41:57.911Z,101026.09
2022-09-05T01:45:07.449Z,101033.41
2022-09-05T01:48:33.861Z,101033.50
2022-09-05T01:51:52.910Z,101039.75
2022-09-05T01:55:33.394Z,101031.59
2022-09-05T01:59:01.517Z,101035.22
2022-09-05T02:02:27.146Z,101037.00
2022-09-05T02:05:51.040Z,101037.88
2022-09-05T02:09:10.826Z,101031.59
2022-09-05T02:12:19.738Z,101028.94
2022-09-05T02:15:25.394Z,101026.25
2022-09-05T02:18:40.320Z,101029.09
2022-09-05T02:21:57.754Z,101030.91
2022-09-05T02:25:30.606Z,101036.38
2022-09-05T02:28:46.103Z,101041.81
2022-09-05T02:31:56.417Z,101043.59
2022-09-05T02:35:13.860Z,101039.09
2022-09-05T02:45:04.017Z,101048.97
2022-09-05T02:45:16.768Z,101052.53
2022-09-05T02:45:48.104Z,101042.59
2022-09-05T02:52:46.196Z,101053.44
2022-09-05T02:57:25.032Z,101052.56
2022-09-05T02:57:46.251Z,101047.16
2022-09-05T03:00:00.509Z,101051.72
2022-09-05T03:03:14.758Z,101045.41
2022-09-05T03:06:35.461Z,101049.91
2022-09-05T03:09:50.357Z,101053.47
2022-09-05T03:13:21.248Z,101049.91
2022-09-05T03:16:48.565Z,101053.53
2022-09-05T03:20:09.486Z,101049.91
2022-09-05T03:23:33.633Z,101048.09
2022-09-05T03:26:51.069Z,101042.69
2022-09-05T03:30:16.145Z,101043.63
2022-09-05T03:33:43.412Z,101046.38
2022-09-05T03:37:00.871Z,101017.75
2022-09-05T03:40:18.600Z,101045.56
2022-09-05T03:43:30.934Z,101044.72
2022-09-05T03:46:53.626Z,101047.44
2022-09-05T03:56:16.080Z,101044.78
2022-09-05T03:57:20.723Z,101052.00
2022-09-05T04:01:20.288Z,101055.56
2022-09-05T04:08:18.373Z,101055.69
2022-09-05T04:08:32.340Z,101050.31
2022-09-05T04:11:47.909Z,101045.81
2022-09-05T04:14:57.559Z,101052.06
2022-09-05T04:18:11.969Z,101046.69
2022-09-05T04:21:18.391Z,101052.12
2022-09-05T04:24:42.041Z,101055.69
2022-09-05T04:28:18.302Z,101051.19
2022-09-05T04:31:30.208Z,101061.94
2022-09-05T04:34:58.478Z,101058.25
2022-09-05T04:38:17.393Z,101061.88
2022-09-05T04:41:37.700Z,101061.88
2022-09-05T04:44:55.951Z,101070.00
2022-09-05T04:48:01.685Z,101073.53
2022-09-05T04:51:12.880Z,101073.53
2022-09-05T04:54:30.314Z,101077.94
2022-09-05T04:58:07.385Z,101078.75
2022-09-05T05:06:00.542Z,101083.19
2022-09-05T05:06:19.101Z,101083.12
2022-09-05T05:08:38.246Z,101092.97
2022-09-05T05:18:03.083Z,101094.66
2022-09-05T05:18:08.952Z,101095.44
2022-09-05T05:18:59.596Z,101097.09
2022-09-05T05:22:13.652Z,101100.53
2022-09-05T05:25:16.416Z,101095.00
2022-09-05T05:28:24.338Z,101102.63
2022-09-05T05:31:31.234Z,101098.13
2022-09-05T05:34:42.865Z,101106.81
2022-09-05T05:37:57.919Z,101113.91
2022-09-05T05:41:05.564Z,101114.47
2022-09-05T05:44:14.188Z,101117.50
2022-09-05T05:47:26.815Z,101118.63
2022-09-05T05:51:06.766Z,101115.63
2022-09-05T05:54:36.916Z,101128.97
2022-09-05T05:58:04.969Z,101131.75
2022-09-05T06:01:37.132Z,101126.56
2022-09-05T06:05:14.824Z,101133.78
2022-09-05T06:14:50.711Z,101138.19
2022-09-05T06:15:01.626Z,101130.66
2022-09-05T06:16:26.367Z,101135.59
2022-09-05T06:22:05.370Z,101135.31
2022-09-05T06:24:09.302Z,101134.94
2022-09-05T06:27:30.546Z,101143.69
2022-09-05T06:30:47.679Z,101145.50
2022-09-05T06:34:33.368Z,101142.63
2022-09-05T06:37:44.109Z,101135.88
2022-09-05T06:40:52.774Z,101136.41
2022-09-05T06:44:19.805Z,101144.44
2022-09-05T06:47:34.131Z,101144.56
2022-09-05T06:51:07.723Z,101146.09
2022-09-05T06:54:23.857Z,101137.12
2022-09-05T06:58:04.299Z,101149.16
2022-09-05T07:01:09.087Z,101151.75
2022-09-05T07:04:34.529Z,101147.59
2022-09-05T07:07:45.604Z,101153.78
2022-09-05T07:11:02.410Z,101160.69
2022-09-05T07:14:23.271Z,101152.25
2022-09-05T07:17:53.805Z,101151.59
2022-09-05T07:21:16.219Z,101141.94
2022-09-05T07:24:54.394Z,101146.03
2022-09-05T07:28:29.867Z,101131.56
2022-09-05T07:31:37.147Z,101146.50
2022-09-05T07:34:40.737Z,101144.63
2022-09-05T07:37:45.122Z,101142.84
2022-09-05T07:40:55.399Z,101136.22
2022-09-05T07:44:03.262Z,101143.28
2022-09-05T07:47:09.877Z,101129.88
2022-09-05T07:53:49.825Z,101132.06
2022-09-05T07:56:49.252Z,101125.97
2022-09-05T08:00:29.931Z,101136.03
2022-09-05T08:03:33.999Z,101131.87
2022-09-05T08:07:22.250Z,101134.03
2022-09-05T08:10:08.173Z,101142.03
2022-09-05T08:13:24.642Z,101144.38
2022-09-05T08:16:31.312Z,101137.16
2022-09-05T08:19:45.998Z,101137.16
2022-09-05T08:23:26.974Z,101140.75
2022-09-05T08:26:37.463Z,101137.81
2022-09-05T08:29:42.024Z,101136.72
2022-09-05T08:33:11.366Z,101130.94
2022-09-05T08:36:20.321Z,101127.19
2022-09-05T08:39:25.805Z,101123.94
2022-09-05T08:42:29.457Z,101115.66
2022-09-05T08:46:43.161Z,101119.44
2022-09-05T08:49:37.150Z,101120.75
2022-09-05T08:52:45.024Z,101105.16
2022-09-05T08:55:54.611Z,101107.87
2022-09-05T08:59:27.741Z,101103.28
2022-09-05T09:02:47.207Z,101096.84
2022-09-05T09:06:21.985Z,101091.22
2022-09-05T09:09:34.448Z,101094.75
2022-09-05T09:12:55.219Z,101089.06
2022-09-05T09:16:11.369Z,101099.78
2022-09-05T09:19:45.533Z,101085.25
2022-09-05T09:22:56.038Z,101080.78
2022-09-05T09:26:15.822Z,101082.41
2022-09-05T09:29:19.534Z,101080.91
2022-09-05T09:32:24.405Z,101079.12
2022-09-05T09:35:51.117Z,101069.16
2022-09-05T09:39:37.339Z,101069.38
2022-09-05T09:42:49.275Z,101060.37
2022-09-05T09:46:10.584Z,101064.97
2022-09-05T09:49:44.021Z,101063.72
2022-09-05T09:53:20.717Z,101055.81
2022-09-05T09:56:48.325Z,101055.66
2022-09-05T10:00:07.701Z,101048.47
2022-09-05T10:10:00.928Z,101063.16
2022-09-05T10:10:43.851Z,101048.84
2022-09-05T10:11:44.032Z,101050.66
2022-09-05T10:14:52.911Z,101050.63
2022-09-05T10:18:17.136Z,101038.41
2022-09-05T10:21:44.567Z,101032.00
2022-09-05T10:25:25.566Z,101031.06
2022-09-05T10:29:36.978Z,101037.16
2022-09-05T10:35:10.609Z,101032.00
2022-09-05T10:36:26.090Z,101021.28
2022-09-05T10:39:31.126Z,101011.88
2022-09-05T10:42:58.096Z,101009.50
2022-09-05T10:46:49.037Z,101005.19
2022-09-05T10:49:54.787Z,101005.94
2022-09-05T10:53:09.954Z,100980.91
2022-09-05T10:56:37.810Z,100990.59
2022-09-05T11:02:22.801Z,100989.06
2022-09-05T11:03:30.690Z,100983.66
2022-09-05T11:06:45.287Z,100983.59
2022-09-05T11:10:09.615Z,100973.69
2022-09-05T11:13:50.060Z,100972.37
2022-09-05T11:16:55.960Z,100977.84
2022-09-05T11:20:34.995Z,100971.78
2022-09-05T11:23:46.694Z,100959.16
2022-09-05T11:27:25.334Z,100959.03
2022-09-05T11:30:39.391Z,100949.25
2022-09-05T11:39:59.544Z,100957.69
2022-09-05T11:40:09.970Z,100954.03
2022-09-05T11:41:32.964Z,100940.09
2022-09-05T11:44:53.439Z,100955.13
2022-09-05T11:48:15.084Z,100946.84
2022-09-05T11:51:33.467Z,100940.31
2022-09-05T11:54:55.698Z,100939.06
2022-09-05T11:58:45.388Z,100933.56
2022-09-05T12:01:44.106Z,100939.72
2022-09-05T12:05:47.445Z,100937.19
2022-09-05T12:08:46.724Z,100942.41
2022-09-05T12:12:32.761Z,100940.88
2022-09-05T12:15:35.935Z,100936.59
2022-09-05T12:18:51.777Z,100932.66
2022-09-05T12:22:18.412Z,100937.72
2022-09-05T12:27:36.127Z,100929.03
2022-09-05T12:29:33.484Z,100932.50
2022-09-05T12:34:50.987Z,100928.94
2022-09-05T12:40:05.147Z,100929.66
2022-09-05T12:41:01.050Z,100925.75
2022-09-05T12:44:40.227Z,100917.44
2022-09-05T12:47:18.598Z,100921.22
2022-09-05T12:50:32.218Z,100916.13
2022-09-05T12:53:51.605Z,100911.69
2022-09-05T13:00:27.649Z,100908.16
2022-09-05T13:03:05.042Z,100903.72
2022-09-05T13:04:17.195Z,100903.06
2022-09-05T13:07:34.071Z,100891.47
2022-09-05T13:13:17.328Z,100893.56
2022-09-05T13:15:00.996Z,100890.19
2022-09-05T13:17:53.210Z,100889.03
2022-09-05T13:20:55.887Z,100888.66
2022-09-05T13:24:12.360Z,100883.50
2022-09-05T13:27:39.256Z,100881.66
2022-09-05T13:37:30.588Z,100874.13
2022-09-05T13:38:03.626Z,100877.84
2022-09-05T13:42:03.519Z,100874.75
2022-09-05T13:45:08.700Z,100870.25
2022-09-05T13:52:41.617Z,100873.47
2022-09-05T13:55:53.817Z,100871.72
2022-09-05T13:59:12.126Z,100871.00
2022-09-05T14:06:45.873Z,100863.59
2022-09-05T14:10:01.171Z,100852.91
2022-09-05T14:13:11.584Z,100854.56
2022-09-05T14:16:19.555Z,100857.00
2022-09-05T14:19:43.264Z,100847.19
2022-09-05T14:23:05.690Z,100839.56
2022-09-05T14:26:22.373Z,100841.13
2022-09-05T14:31:17.003Z,100842.12
2022-09-05T14:37:50.762Z,100839.63
2022-09-05T14:38:04.336Z,100833.28
2022-09-05T14:41:34.709Z,100827.37
2022-09-05T14:45:02.046Z,100822.19
2022-09-05T14:48:30.537Z,100821.91
2022-09-05T14:51:45.368Z,100820.72
2022-09-05T15:02:42.067Z,100825.28
2022-09-05T15:02:49.861Z,100813.56
2022-09-05T15:05:13.033Z,100810.69
2022-09-05T15:11:24.174Z,100800.28
2022-09-05T15:12:27.811Z,100801.94
2022-09-05T15:15:07.359Z,100801.66
2022-09-05T15:18:20.830Z,100796.13
2022-09-05T15:21:38.678Z,100798.59
2022-09-05T15:24:41.206Z,100790.81
2022-09-05T15:27:45.165Z,100789.56
2022-09-05T15:31:00.021Z,100786.22
2022-09-05T15:34:24.716Z,100795.91
2022-09-05T15:37:40.437Z,100790.34
2022-09-05T15:40:43.341Z,100788.63
2022-09-05T15:43:53.901Z,100792.47
2022-09-05T15:47:01.589Z,100790.00
2022-09-05T15:50:21.915Z,100788.22
2022-09-05T15:53:29.044Z,100786.84
2022-09-05T15:56:31.883Z,100782.13
2022-09-05T15:59:48.282Z,100787.50
2022-09-05T16:03:05.314Z,100776.31
2022-09-05T16:10:27.713Z,100783.38
2022-09-05T16:10:37.856Z,100777.28
2022-09-05T16:13:46.321Z,100781.06
2022-09-05T16:23:19.237Z,100773.00
2022-09-05T16:23:28.687Z,100774.53
2022-09-05T16:24:05.358Z,100776.37
2022-09-05T16:27:10.700Z,100766.50
2022-09-05T16:30:24.322Z,100767.41
2022-09-05T16:33:30.421Z,100767.28
2022-09-05T16:36:41.425Z,100763.13
2022-09-05T16:40:02.204Z,100760.56
2022-09-05T16:43:24.435Z,100760.56
2022-09-05T16:46:29.851Z,100763.22
2022-09-05T16:49:42.196Z,100758.25
2022-09-05T16:52:53.725Z,100768.00
2022-09-05T16:56:04.057Z,100753.13
2022-09-05T16:59:10.234Z,100758.47
2022-09-05T17:02:42.609Z,100762.09
2022-09-05T17:05:48.741Z,100760.91
2022-09-05T17:08:52.429Z,100756.72
2022-09-05T17:12:02.089Z,100759.25
2022-09-05T17:15:29.577Z,100759.16
2022-09-05T17:18:34.250Z,100771.53
2022-09-05T17:23:47.171Z,100774.53
2022-09-05T17:29:17.372Z,100768.81
2022-09-05T17:29:31.262Z,100768.97
2022-09-05T17:32:19.004Z,100774.53
2022-09-05T17:35:27.416Z,100779.56
2022-09-05T17:38:47.238Z,100781.94
2022-09-05T17:41:56.096Z,100776.88
2022-09-05T17:45:19.904Z,100779.44
2022-09-05T17:49:05.305Z,100775.66
2022-09-05T17:52:18.108Z,100786.31
2022-09-05T17:55:20.644Z,100786.31
2022-09-05T17:58:28.241Z,100782.00
2022-09-05T18:02:02.063Z,100789.25
2022-09-05T18:05:08.841Z,100785.03
2022-09-05T18:08:46.616Z,100791.06
2022-09-05T18:13:14.222Z,100799.25
2022-09-05T18:15:55.977Z,100797.81
2022-09-05T18:23:19.496Z,100802.66
2022-09-05T18:26:28.299Z,100803.97
2022-09-05T18:33:53.810Z,100815.94
2022-09-05T18:36:25.988Z,100814.28
2022-09-05T18:39:37.847Z,100815.75
2022-09-05T18:42:41.201Z,100811.38
2022-09-05T18:45:52.890Z,100810.53
2022-09-05T18:50:25.140Z,100813.44
2022-09-05T18:52:43.296Z,100812.75
2022-09-05T18:56:14.111Z,100812.28
2022-09-05T18:59:28.370Z,100806.31
2022-09-05T19:02:58.994Z,100812.78
2022-09-05T19:06:36.336Z,100817.44
2022-09-05T19:09:31.611Z,100812.28
2022-09-05T19:12:46.510Z,100805.34
2022-09-05T19:16:34.855Z,100806.56
2022-09-05T19:19:28.003Z,100804.06
2022-09-05T19:23:08.476Z,100803.34
2022-09-05T19:26:03.604Z,100800.63
2022-09-05T19:37:02.640Z,100794.50
2022-09-05T19:37:14.564Z,100798.91
2022-09-05T19:37:22.809Z,100795.12
2022-09-05T19:44:44.757Z,100787.38
2022-09-05T19:47:35.725Z,100795.38
2022-09-05T19:47:37.193Z,100788.31
2022-09-05T19:50:23.656Z,100790.03
2022-09-05T19:53:26.706Z,100795.84
2022-09-05T19:56:48.525Z,100786.03
2022-09-05T19:59:56.393Z,100788.16
2022-09-05T20:03:00.806Z,100791.72
2022-09-05T20:06:03.714Z,100784.38
2022-09-05T20:09:17.343Z,100788.81
2022-09-05T20:12:24.302Z,100791.78
2022-09-05T20:15:37.369Z,100789.28
2022-09-05T20:18:42.903Z,100785.87
2022-09-05T20:21:45.352Z,100791.31
2022-09-05T20:24:49.372Z,100790.59
2022-09-05T20:27:52.250Z,100785.41
2022-09-05T20:30:58.492Z,100790.97
2022-09-05T20:34:55.215Z,100786.44
2022-09-05T20:43:10.383Z,100784.62
2022-09-05T20:43:15.706Z,100787.09
2022-09-05T20:44:48.295Z,100781.00
2022-09-05T20:54:12.981Z,100791.91
2022-09-05T20:54:13.078Z,100785.69
2022-09-05T20:54:42.374Z,100782.03
2022-09-05T20:57:45.373Z,100783.91
2022-09-05T21:01:15.487Z,100787.72
2022-09-05T21:04:28.741Z,100793.13
2022-09-05T21:07:39.883Z,100794.13
2022-09-05T21:10:55.683Z,100788.94
2022-09-05T21:14:04.380Z,100789.19
2022-09-05T21:17:15.052Z,100795.25
2022-09-05T21:20:23.371Z,100795.94
2022-09-05T21:23:37.521Z,100784.16
2022-09-05T21:26:39.957Z,100787.97
2022-09-05T21:29:43.355Z,100795.38
2022-09-05T21:32:47.980Z,100782.69
2022-09-05T21:36:09.165Z,100796.16
2022-09-05T21:39:11.610Z,100791.44
2022-09-05T21:45:52.939Z,100791.44
2022-09-05T21:47:48.045Z,100788.72
2022-09-05T21:49:00.628Z,100787.16
2022-09-05T21:52:05.746Z,100786.31
2022-09-05T21:59:16.893Z,100782.63
2022-09-05T21:59:17.911Z,100771.69
2022-09-05T22:01:56.774Z,100783.41
2022-09-05T22:05:03.632Z,100775.03
2022-09-05T22:08:06.383Z,100778.53
2022-09-05T22:11:10.919Z,100770.13
2022-09-05T22:14:13.316Z,100760.91
2022-09-05T22:17:17.261Z,100766.91
2022-09-05T22:20:21.360Z,100762.06
2022-09-05T22:23:24.211Z,100771.00
2022-09-05T22:26:28.367Z,100763.72
2022-09-05T22:29:34.474Z,100763.59
2022-09-05T22:32:36.933Z,100761.88
2022-09-05T22:35:40.144Z,100766.69
2022-09-05T22:38:43.515Z,100762.69
2022-09-05T22:41:46.205Z,100770.03
2022-09-05T22:44:48.609Z,100762.97
2022-09-05T22:47:51.265Z,100761.28
2022-09-05T22:50:53.695Z,100756.91
2022-09-05T22:53:56.419Z,100761.63
2022-09-05T22:56:58.890Z,100753.78
2022-09-05T23:00:01.640Z,100756.59
2022-09-05T23:03:05.678Z,100749.69
2022-09-05T23:06:09.657Z,100747.12
2022-09-05T23:09:12.148Z,100750.19
2022-09-05T23:12:14.909Z,100741.22
2022-09-05T23:15:17.540Z,100743.53
2022-09-05T23:18:20.249Z,100742.00
2022-09-05T23:21:22.718Z,100737.69
2022-09-05T23:24:25.992Z,100742.31
2022-09-05T23:27:29.939Z,100741.66
2022-09-05T23:30:32.648Z,100739.03
2022-09-05T23:33:35.458Z,100742.84
2022-09-05T23:36:38.130Z,100739.41
2022-09-05T23:39:40.592Z,100746.63
2022-09-05T23:42:51.941Z,100750.56
2022-09-05T23:45:54.542Z,100740.72
2022-09-05T23:48:57.290Z,100739.69
2022-09-05T23:51:59.699Z,100748.00
2022-09-05T23:55:02.430Z,100742.56
2022-09-05T23:58:04.932Z,100745.41
